createdAt,value
2023-03-10T00:01:21.277Z,3.07
2023-03-10T00:03:50.822Z,2.97
2023-03-10T00:06:22.118Z,2.93
2023-03-10T00:08:51.174Z,4.93
2023-03-10T00:11:19.618Z,5.90
2023-03-10T00:13:48.012Z,3.00
2023-03-10T00:16:20.395Z,2.43
2023-03-10T00:18:48.751Z,2.77
2023-03-10T00:21:18.104Z,3.00
2023-03-10T00:23:47.898Z,4.23
2023-03-10T00:26:17.679Z,2.87
2023-03-10T00:28:46.605Z,2.50
2023-03-10T00:31:16.795Z,2.43
2023-03-10T00:33:45.152Z,6.60
2023-03-10T00:36:15.911Z,3.30
2023-03-10T00:38:45.827Z,1.70
2023-03-10T00:41:17.267Z,2.20
2023-03-10T00:43:45.912Z,2.27
2023-03-10T00:46:14.198Z,2.57
2023-03-10T00:48:45.675Z,2.40
2023-03-10T00:51:14.247Z,1.70
2023-03-10T00:53:42.916Z,1.57
2023-03-10T00:56:16.200Z,3.50
2023-03-10T00:58:45.685Z,2.60
2023-03-10T01:01:16.200Z,2.37
2023-03-10T01:03:45.559Z,3.00
2023-03-10T01:06:15.408Z,3.83
2023-03-10T01:08:43.609Z,2.17
2023-03-10T01:11:14.196Z,5.63
2023-03-10T01:13:43.819Z,2.10
2023-03-10T01:16:12.110Z,1.90
2023-03-10T01:18:40.709Z,3.40
2023-03-10T01:21:08.992Z,1.70
2023-03-10T01:23:37.166Z,3.00
2023-03-10T01:26:05.470Z,2.33
2023-03-10T01:28:33.507Z,3.70
2023-03-10T01:31:05.023Z,1.23
2023-03-10T01:33:33.721Z,4.07
2023-03-10T01:36:01.969Z,5.57
2023-03-10T01:38:30.175Z,2.50
2023-03-10T01:40:58.121Z,1.87
2023-03-10T01:43:31.201Z,2.73
2023-03-10T01:46:44.147Z,3.33
2023-03-10T01:49:26.999Z,3.47
2023-03-10T01:52:00.963Z,1.70
2023-03-10T01:54:35.112Z,3.67
2023-03-10T01:57:03.758Z,1.07
2023-03-10T01:59:31.731Z,2.53
2023-03-10T02:02:02.835Z,4.07
2023-03-10T02:04:37.534Z,2.13
2023-03-10T02:07:07.218Z,2.87
2023-03-10T02:09:39.289Z,1.77
2023-03-10T02:12:08.925Z,0.90
2023-03-10T02:14:37.323Z,1.83
2023-03-10T02:17:10.130Z,1.53
2023-03-10T02:20:02.547Z,2.73
2023-03-10T02:22:31.053Z,2.23
2023-03-10T02:25:08.759Z,4.37
2023-03-10T02:27:40.779Z,1.10
2023-03-10T02:30:11.600Z,1.97
2023-03-10T02:32:45.420Z,2.80
2023-03-10T02:35:13.909Z,1.73
2023-03-10T02:37:42.189Z,1.70
2023-03-10T02:40:32.426Z,1.30
2023-03-10T02:43:03.590Z,2.27
2023-03-10T02:45:35.677Z,1.37
2023-03-10T02:48:04.055Z,2.20
2023-03-10T02:50:37.858Z,2.17
2023-03-10T02:53:12.053Z,1.27
2023-03-10T02:55:40.371Z,2.67
2023-03-10T02:58:10.268Z,2.13
2023-03-10T03:00:39.353Z,1.77
2023-03-10T03:03:09.523Z,2.73
2023-03-10T03:05:38.088Z,1.67
2023-03-10T03:08:07.626Z,5.33
2023-03-10T03:10:36.270Z,3.10
2023-03-10T03:13:04.501Z,2.67
2023-03-10T03:15:36.548Z,1.40
2023-03-10T03:18:05.776Z,2.73
2023-03-10T03:20:34.318Z,2.07
2023-03-10T03:23:02.540Z,2.23
2023-03-10T03:25:31.092Z,3.60
2023-03-10T03:27:59.910Z,3.40
2023-03-10T03:30:29.318Z,4.73
2023-03-10T03:32:58.694Z,4.03
2023-03-10T03:35:30.056Z,3.83
2023-03-10T03:37:58.842Z,7.13
2023-03-10T03:40:28.857Z,3.17
2023-03-10T03:42:56.997Z,2.67
2023-03-10T03:45:27.342Z,2.70
2023-03-10T03:47:55.420Z,2.33
2023-03-10T03:50:25.405Z,2.67
2023-03-10T03:52:56.149Z,2.30
2023-03-10T03:55:24.422Z,3.77
2023-03-10T03:57:52.614Z,4.30
2023-03-10T04:00:22.533Z,2.77
2023-03-10T04:02:51.145Z,2.23
2023-03-10T04:05:19.349Z,6.67
2023-03-10T04:07:49.934Z,3.27
2023-03-10T04:10:23.700Z,4.57
2023-03-10T04:12:51.718Z,1.57
2023-03-10T04:15:20.279Z,4.07
2023-03-10T04:17:48.344Z,2.13
2023-03-10T04:20:17.887Z,4.00
2023-03-10T04:22:46.698Z,4.07
2023-03-10T04:25:16.463Z,5.33
2023-03-10T04:27:44.565Z,3.80
2023-03-10T04:30:14.705Z,2.90
2023-03-10T04:32:43.167Z,2.67
2023-03-10T04:35:13.454Z,9.33
2023-03-10T04:37:42.220Z,2.83
2023-03-10T04:40:16.619Z,5.47
2023-03-10T04:42:44.682Z,5.33
2023-03-10T04:45:13.553Z,2.47
2023-03-10T04:47:45.652Z,4.17
2023-03-10T04:50:17.479Z,2.97
2023-03-10T04:52:46.824Z,7.40
2023-03-10T04:55:16.727Z,2.57
2023-03-10T04:57:45.162Z,5.37
2023-03-10T05:00:14.288Z,5.03
2023-03-10T05:02:42.832Z,2.30
2023-03-10T05:05:11.846Z,4.23
2023-03-10T05:07:40.182Z,3.97
2023-03-10T05:10:13.365Z,4.33
2023-03-10T05:12:43.122Z,6.03
2023-03-10T05:15:12.301Z,4.13
2023-03-10T05:17:40.873Z,5.07
2023-03-10T05:20:10.579Z,8.97
2023-03-10T05:22:39.174Z,6.80
2023-03-10T05:25:08.577Z,8.83
2023-03-10T05:27:39.255Z,7.23
2023-03-10T05:30:12.385Z,7.87
2023-03-10T05:32:41.462Z,8.00
2023-03-10T05:35:11.090Z,8.70
2023-03-10T05:37:40.741Z,8.53
2023-03-10T05:40:10.374Z,8.40
2023-03-10T05:42:38.710Z,6.10
2023-03-10T05:45:09.997Z,6.50
2023-03-10T05:47:38.369Z,8.83
2023-03-10T05:50:07.636Z,5.17
2023-03-10T05:52:38.447Z,6.50
2023-03-10T05:55:08.328Z,9.77
2023-03-10T05:57:36.567Z,11.83
2023-03-10T06:00:05.804Z,11.23
2023-03-10T06:02:35.696Z,9.40
2023-03-10T06:05:04.290Z,8.77
2023-03-10T06:07:32.582Z,8.33
2023-03-10T06:10:01.042Z,9.40
2023-03-10T06:12:31.968Z,8.10
2023-03-10T06:15:00.510Z,6.50
2023-03-10T06:17:28.572Z,9.73
2023-03-10T06:19:58.106Z,6.97
2023-03-10T06:22:26.533Z,8.67
2023-03-10T06:24:56.250Z,6.60
2023-03-10T06:27:25.995Z,10.20
2023-03-10T06:29:54.449Z,8.17
2023-03-10T06:32:23.336Z,7.93
2023-03-10T06:34:51.744Z,7.77
2023-03-10T06:37:21.356Z,10.73
2023-03-10T06:39:49.761Z,6.97
2023-03-10T06:42:18.632Z,8.73
2023-03-10T06:44:49.189Z,10.87
2023-03-10T06:47:21.978Z,6.23
2023-03-10T06:49:50.359Z,8.00
2023-03-10T06:52:21.181Z,7.70
2023-03-10T06:54:49.293Z,8.60
2023-03-10T06:57:20.555Z,6.27
2023-03-10T06:59:49.287Z,12.57
2023-03-10T07:02:19.893Z,6.80
2023-03-10T07:04:51.520Z,4.50
2023-03-10T07:07:24.900Z,6.87
2023-03-10T07:09:53.212Z,12.23
2023-03-10T07:12:21.458Z,9.67
2023-03-10T07:14:49.776Z,5.47
2023-03-10T07:17:19.903Z,5.63
2023-03-10T07:19:47.917Z,5.63
2023-03-10T07:22:16.192Z,6.37
2023-03-10T07:24:45.948Z,7.03
2023-03-10T07:27:14.271Z,6.53
2023-03-10T07:29:42.563Z,5.77
2023-03-10T07:32:11.018Z,5.40
2023-03-10T07:34:42.125Z,8.93
2023-03-10T07:37:12.082Z,5.67
2023-03-10T07:39:40.197Z,6.90
2023-03-10T07:42:10.051Z,12.70
2023-03-10T07:44:38.471Z,7.47
2023-03-10T07:47:06.686Z,3.97
2023-03-10T07:49:35.008Z,8.97
2023-03-10T07:52:03.507Z,7.03
2023-03-10T07:54:31.676Z,7.97
2023-03-10T07:56:59.820Z,4.87
2023-03-10T07:59:29.555Z,4.53
2023-03-10T08:01:58.666Z,7.40
2023-03-10T08:04:27.281Z,6.53
2023-03-10T08:06:57.088Z,4.33
2023-03-10T08:09:25.967Z,4.57
2023-03-10T08:11:54.315Z,4.20
2023-03-10T08:14:24.275Z,4.73
2023-03-10T08:16:56.806Z,5.33
2023-03-10T08:19:25.912Z,4.13
2023-03-10T08:21:56.076Z,3.23
2023-03-10T08:24:24.472Z,2.97
2023-03-10T08:26:52.896Z,2.43
2023-03-10T08:29:21.702Z,4.23
2023-03-10T08:31:50.296Z,3.47
2023-03-10T08:34:20.389Z,3.47
2023-03-10T08:36:49.000Z,4.33
2023-03-10T08:39:17.232Z,3.77
2023-03-10T08:41:49.274Z,1.57
2023-03-10T08:44:18.526Z,4.50
2023-03-10T08:46:48.468Z,3.90
2023-03-10T08:49:18.664Z,5.80
2023-03-10T08:51:48.779Z,2.90
2023-03-10T08:54:19.557Z,5.07
2023-03-10T08:56:47.700Z,4.83
2023-03-10T08:59:16.190Z,5.90
2023-03-10T09:01:44.849Z,4.03
2023-03-10T09:04:13.592Z,9.13
2023-03-10T09:06:42.016Z,2.43
2023-03-10T09:09:12.601Z,4.23
2023-03-10T09:11:43.397Z,1.70
2023-03-10T09:14:12.535Z,4.87
2023-03-10T09:16:42.723Z,3.50
2023-03-10T09:19:13.018Z,4.80
2023-03-10T09:21:42.373Z,3.37
2023-03-10T09:24:13.188Z,6.60
2023-03-10T09:26:44.518Z,4.20
2023-03-10T09:29:13.603Z,7.87
2023-03-10T09:31:43.864Z,4.77
2023-03-10T09:34:15.542Z,4.83
2023-03-10T09:36:46.108Z,6.27
2023-03-10T09:39:16.491Z,5.07
2023-03-10T09:42:36.403Z,5.93
2023-03-10T09:45:22.013Z,5.43
2023-03-10T09:48:08.277Z,5.87
2023-03-10T09:50:40.265Z,7.33
2023-03-10T09:53:27.568Z,3.57
2023-03-10T09:56:00.401Z,3.27
2023-03-10T09:58:41.084Z,4.17
2023-03-10T10:01:21.739Z,3.60
2023-03-10T10:03:54.239Z,1.97
2023-03-10T10:06:28.353Z,3.27
2023-03-10T10:09:04.922Z,4.03
2023-03-10T10:11:43.722Z,2.60
2023-03-10T10:14:29.273Z,5.80
2023-03-10T10:17:15.507Z,2.30
2023-03-10T10:19:45.475Z,4.00
2023-03-10T10:22:21.025Z,4.50
2023-03-10T10:25:04.948Z,5.13
2023-03-10T10:27:37.811Z,2.50
2023-03-10T10:30:28.533Z,3.67
2023-03-10T10:32:59.294Z,5.17
2023-03-10T10:35:40.964Z,10.50
2023-03-10T10:38:24.712Z,1.73
2023-03-10T10:41:06.588Z,2.87
2023-03-10T10:43:43.502Z,3.87
2023-03-10T10:46:14.002Z,3.50
2023-03-10T10:48:46.208Z,2.93
2023-03-10T10:51:24.508Z,2.30
2023-03-10T10:53:53.974Z,5.40
2023-03-10T10:56:24.277Z,4.80
2023-03-10T10:59:22.783Z,4.53
2023-03-10T11:01:56.585Z,5.33
2023-03-10T11:04:26.825Z,5.67
2023-03-10T11:07:11.441Z,4.37
2023-03-10T11:09:40.105Z,6.47
2023-03-10T11:12:20.074Z,4.70
2023-03-10T11:15:16.080Z,3.37
2023-03-10T11:17:49.341Z,2.10
2023-03-10T11:20:33.000Z,3.47
2023-03-10T11:23:09.730Z,2.87
2023-03-10T11:25:42.141Z,1.77
2023-03-10T11:28:38.278Z,3.97
2023-03-10T11:31:25.624Z,3.87
2023-03-10T11:34:00.344Z,3.57
2023-03-10T11:36:49.549Z,2.90
2023-03-10T11:39:34.064Z,5.27
2023-03-10T11:42:10.656Z,4.57
2023-03-10T11:44:43.723Z,2.97
2023-03-10T11:47:25.942Z,4.50
2023-03-10T11:50:04.205Z,3.37
2023-03-10T11:52:34.153Z,0.87
2023-03-10T11:55:07.087Z,2.53
2023-03-10T11:57:42.940Z,2.20
2023-03-10T12:00:23.427Z,3.57
2023-03-10T12:03:08.262Z,4.43
2023-03-10T12:05:46.428Z,2.47
2023-03-10T12:08:16.590Z,1.07
2023-03-10T12:10:45.349Z,2.23
2023-03-10T12:13:24.676Z,2.10
2023-03-10T12:15:59.612Z,2.50
2023-03-10T12:18:30.297Z,1.97
2023-03-10T12:21:34.378Z,2.13
2023-03-10T12:24:07.333Z,3.97
2023-03-10T12:27:01.419Z,2.50
2023-03-10T12:29:37.106Z,9.73
2023-03-10T12:32:06.463Z,6.70
2023-03-10T12:34:38.308Z,1.73
2023-03-10T12:37:10.011Z,1.80
2023-03-10T12:39:42.914Z,2.37
2023-03-10T12:42:32.267Z,3.40
2023-03-10T12:45:24.366Z,2.47
2023-03-10T12:48:03.903Z,1.80
2023-03-10T12:50:38.009Z,2.00
2023-03-10T12:53:23.074Z,1.97
2023-03-10T12:56:09.013Z,1.53
2023-03-10T12:58:38.730Z,2.30
2023-03-10T13:01:12.127Z,7.43
2023-03-10T13:03:47.993Z,2.13
2023-03-10T13:06:24.899Z,1.37
2023-03-10T13:08:58.585Z,0.80
2023-03-10T13:11:38.124Z,1.63
2023-03-10T13:14:12.535Z,2.70
2023-03-10T13:16:40.976Z,1.23
2023-03-10T13:19:19.915Z,1.33
2023-03-10T13:21:51.122Z,1.83
2023-03-10T13:24:27.032Z,2.60
2023-03-10T13:27:06.605Z,3.77
2023-03-10T13:29:35.350Z,3.43
2023-03-10T13:32:03.921Z,1.63
2023-03-10T13:34:34.175Z,2.30
2023-03-10T13:37:09.399Z,2.60
2023-03-10T13:39:38.255Z,3.43
2023-03-10T13:42:21.397Z,1.83
2023-03-10T13:44:52.627Z,1.47
2023-03-10T13:47:23.007Z,2.60
2023-03-10T13:49:53.749Z,5.40
2023-03-10T13:52:26.122Z,2.93
2023-03-10T13:55:06.164Z,2.90
2023-03-10T13:57:36.682Z,2.43
2023-03-10T14:00:45.499Z,1.80
2023-03-10T14:03:15.918Z,2.97
2023-03-10T14:05:46.555Z,1.93
2023-03-10T14:08:23.300Z,1.67
2023-03-10T14:10:51.444Z,1.40
2023-03-10T14:13:41.770Z,2.00
2023-03-10T14:16:10.865Z,2.73
2023-03-10T14:18:40.531Z,7.50
2023-03-10T14:21:31.863Z,1.17
2023-03-10T14:24:06.119Z,4.93
2023-03-10T14:26:34.512Z,3.47
2023-03-10T14:29:04.138Z,3.33
2023-03-10T14:31:32.429Z,1.90
2023-03-10T14:34:00.423Z,3.13
2023-03-10T14:36:28.809Z,1.57
2023-03-10T14:38:56.804Z,1.13
2023-03-10T14:41:26.604Z,1.17
2023-03-10T14:43:54.688Z,0.70
2023-03-10T14:46:24.586Z,1.70
2023-03-10T14:48:53.855Z,3.30
2023-03-10T14:51:34.483Z,1.17
2023-03-10T14:54:03.806Z,2.50
2023-03-10T14:56:34.510Z,0.40
2023-03-10T14:59:03.106Z,0.80
2023-03-10T15:01:32.396Z,0.73
2023-03-10T15:04:00.672Z,0.50
2023-03-10T15:06:28.713Z,1.60
2023-03-10T15:08:56.697Z,1.63
2023-03-10T15:11:36.498Z,0.50
2023-03-10T15:14:14.297Z,0.50
2023-03-10T15:16:42.934Z,0.40
2023-03-10T15:19:19.143Z,0.40
2023-03-10T15:21:47.246Z,0.60
2023-03-10T15:24:15.260Z,4.93
2023-03-10T15:26:43.520Z,1.47
2023-03-10T15:29:15.377Z,0.80
2023-03-10T15:31:43.465Z,0.50
2023-03-10T15:34:11.499Z,3.03
2023-03-10T15:36:39.689Z,0.90
2023-03-10T15:39:09.864Z,2.50
2023-03-10T15:41:40.800Z,0.90
2023-03-10T15:44:09.906Z,0.80
2023-03-10T15:46:42.761Z,0.90
2023-03-10T15:49:11.119Z,1.57
2023-03-10T15:51:39.103Z,1.17
2023-03-10T15:54:07.306Z,1.90
2023-03-10T15:56:35.345Z,0.80
2023-03-10T15:59:04.593Z,1.13
2023-03-10T16:01:33.098Z,2.53
2023-03-10T16:04:05.774Z,1.20
2023-03-10T16:06:34.872Z,0.60
2023-03-10T16:09:03.785Z,1.27
2023-03-10T16:11:32.138Z,0.63
2023-03-10T16:14:00.244Z,0.77
2023-03-10T16:16:28.695Z,2.03
2023-03-10T16:18:56.876Z,0.93
2023-03-10T16:21:27.758Z,1.77
2023-03-10T16:23:55.897Z,2.33
2023-03-10T16:26:25.465Z,1.20
2023-03-10T16:28:55.747Z,2.07
2023-03-10T16:31:26.353Z,3.03
2023-03-10T16:33:55.717Z,2.27
2023-03-10T16:36:25.555Z,1.03
2023-03-10T16:38:56.871Z,0.90
2023-03-10T16:41:25.250Z,0.70
2023-03-10T16:43:54.668Z,5.77
2023-03-10T16:46:26.176Z,2.67
2023-03-10T16:48:55.339Z,4.43
2023-03-10T16:51:27.088Z,1.20
2023-03-10T16:53:58.131Z,0.80
2023-03-10T16:56:26.746Z,1.30
2023-03-10T16:58:55.081Z,1.83
2023-03-10T17:01:24.372Z,2.40
2023-03-10T17:03:53.082Z,3.03
2023-03-10T17:06:23.108Z,0.90
2023-03-10T17:08:52.662Z,0.70
2023-03-10T17:11:27.066Z,1.30
2023-03-10T17:13:58.042Z,3.00
2023-03-10T17:16:30.883Z,1.47
2023-03-10T17:19:01.657Z,1.23
2023-03-10T17:21:33.289Z,0.80
2023-03-10T17:24:01.864Z,1.10
2023-03-10T17:26:31.637Z,1.20
2023-03-10T17:28:59.942Z,0.67
2023-03-10T17:31:30.634Z,0.70
2023-03-10T17:34:00.669Z,1.70
2023-03-10T17:36:31.902Z,1.33
2023-03-10T17:39:20.184Z,0.90
2023-03-10T17:41:49.981Z,0.70
2023-03-10T17:44:18.554Z,1.53
2023-03-10T17:46:47.802Z,0.87
2023-03-10T17:49:16.652Z,0.60
2023-03-10T17:51:46.244Z,0.57
2023-03-10T17:54:15.840Z,0.70
2023-03-10T17:56:43.980Z,1.37
2023-03-10T17:59:15.040Z,1.07
2023-03-10T18:01:44.623Z,0.90
2023-03-10T18:04:13.976Z,0.70
2023-03-10T18:06:42.057Z,5.67
2023-03-10T18:09:14.669Z,1.83
2023-03-10T18:11:42.813Z,1.23
2023-03-10T18:14:13.864Z,0.87
2023-03-10T18:16:43.379Z,0.97
2023-03-10T18:19:11.926Z,0.50
2023-03-10T18:21:39.997Z,0.83
2023-03-10T18:24:08.803Z,0.70
2023-03-10T18:26:38.062Z,0.50
2023-03-10T18:29:06.191Z,0.73
2023-03-10T18:31:36.693Z,0.70
2023-03-10T18:34:07.028Z,0.70
2023-03-10T18:36:35.316Z,1.97
2023-03-10T18:39:04.907Z,0.50
2023-03-10T18:41:33.801Z,7.73
2023-03-10T18:44:02.047Z,0.70
2023-03-10T18:46:30.724Z,0.67
2023-03-10T18:48:59.004Z,1.10
2023-03-10T18:51:30.349Z,0.63
2023-03-10T18:53:59.027Z,1.77
2023-03-10T18:56:49.525Z,0.80
2023-03-10T18:59:19.009Z,1.00
2023-03-10T19:01:47.231Z,1.27
2023-03-10T19:04:15.852Z,1.10
2023-03-10T19:06:53.554Z,2.10
2023-03-10T19:09:29.076Z,1.20
2023-03-10T19:11:57.271Z,1.70
2023-03-10T19:14:25.214Z,1.20
2023-03-10T19:16:54.777Z,1.30
2023-03-10T19:19:24.910Z,1.73
2023-03-10T19:21:54.846Z,1.30
2023-03-10T19:24:23.101Z,1.90
2023-03-10T19:26:51.396Z,4.13
2023-03-10T19:29:19.770Z,2.10
2023-03-10T19:31:51.084Z,3.00
2023-03-10T19:34:19.466Z,3.47
2023-03-10T19:36:47.714Z,2.07
2023-03-10T19:39:18.070Z,3.33
2023-03-10T19:41:46.385Z,3.50
2023-03-10T19:44:14.599Z,3.07
2023-03-10T19:46:42.964Z,2.93
2023-03-10T19:49:11.410Z,2.53
2023-03-10T19:51:39.713Z,2.47
2023-03-10T19:54:08.291Z,2.40
2023-03-10T19:56:38.709Z,2.83
2023-03-10T19:59:07.515Z,3.23
2023-03-10T20:01:37.102Z,2.80
2023-03-10T20:04:05.730Z,4.77
2023-03-10T20:06:33.765Z,3.00
2023-03-10T20:09:04.218Z,2.87
2023-03-10T20:11:32.290Z,2.40
2023-03-10T20:14:05.995Z,3.30
2023-03-10T20:16:38.074Z,5.10
2023-03-10T20:19:06.120Z,2.43
2023-03-10T20:21:34.209Z,4.33
2023-03-10T20:24:02.265Z,3.50
2023-03-10T20:26:30.483Z,2.30
2023-03-10T20:29:00.210Z,2.40
2023-03-10T20:31:34.124Z,2.33
2023-03-10T20:34:02.655Z,3.50
2023-03-10T20:36:30.867Z,2.10
2023-03-10T20:38:59.517Z,2.13
2023-03-10T20:41:27.739Z,3.00
2023-03-10T20:43:55.632Z,3.47
2023-03-10T20:46:25.017Z,3.30
2023-03-10T20:48:54.523Z,2.20
2023-03-10T20:51:23.378Z,2.60
2023-03-10T20:53:52.612Z,2.77
2023-03-10T20:56:20.798Z,1.90
2023-03-10T20:58:48.758Z,5.93
2023-03-10T21:01:18.621Z,2.50
2023-03-10T21:03:47.137Z,2.87
2023-03-10T21:06:16.526Z,1.90
2023-03-10T21:08:44.712Z,2.27
2023-03-10T21:11:12.704Z,2.53
2023-03-10T21:13:41.114Z,2.47
2023-03-10T21:16:09.651Z,2.50
2023-03-10T21:18:37.865Z,2.13
2023-03-10T21:21:09.773Z,3.93
2023-03-10T21:23:39.889Z,2.33
2023-03-10T21:26:12.857Z,2.03
2023-03-10T21:28:41.142Z,3.17
2023-03-10T21:31:10.043Z,1.60
2023-03-10T21:33:38.769Z,4.97
2023-03-10T21:36:07.518Z,2.03
2023-03-10T21:38:36.616Z,2.77
2023-03-10T21:41:08.286Z,1.30
2023-03-10T21:43:36.572Z,1.60
2023-03-10T21:46:04.685Z,4.30
2023-03-10T21:48:32.554Z,1.57
2023-03-10T21:51:00.637Z,1.30
2023-03-10T21:53:29.679Z,1.50
2023-03-10T21:55:59.150Z,1.53
2023-03-10T21:58:28.437Z,1.63
2023-03-10T22:00:56.868Z,1.67
2023-03-10T22:03:24.839Z,1.60
2023-03-10T22:05:52.768Z,1.43
2023-03-10T22:08:21.878Z,2.07
2023-03-10T22:10:50.097Z,1.37
2023-03-10T22:13:18.085Z,1.50
2023-03-10T22:15:47.465Z,1.17
2023-03-10T22:18:17.442Z,1.87
2023-03-10T22:20:45.540Z,3.43
2023-03-10T22:23:13.705Z,2.33
2023-03-10T22:25:42.174Z,2.23
2023-03-10T22:28:10.910Z,2.40
2023-03-10T22:30:40.061Z,1.67
2023-03-10T22:33:21.798Z,1.77
2023-03-10T22:35:52.299Z,1.90
2023-03-10T22:38:21.149Z,1.83
2023-03-10T22:40:49.583Z,2.23
2023-03-10T22:43:17.526Z,1.50
2023-03-10T22:45:45.416Z,1.30
2023-03-10T22:48:15.080Z,1.43
2023-03-10T22:50:46.654Z,1.47
2023-03-10T22:53:16.412Z,1.63
2023-03-10T22:55:46.537Z,1.50
2023-03-10T22:58:16.590Z,2.00
2023-03-10T23:00:44.640Z,1.67
2023-03-10T23:03:15.304Z,1.60
2023-03-10T23:05:44.992Z,2.30
2023-03-10T23:08:13.337Z,1.73
2023-03-10T23:10:42.538Z,2.17
2023-03-10T23:13:14.723Z,1.63
2023-03-10T23:15:43.586Z,1.30
2023-03-10T23:18:12.987Z,6.17
2023-03-10T23:20:45.595Z,1.37
2023-03-10T23:23:15.672Z,1.30
2023-03-10T23:25:47.028Z,3.03
2023-03-10T23:28:16.806Z,1.87
2023-03-10T23:30:46.830Z,1.80
2023-03-10T23:33:18.071Z,1.30
2023-03-10T23:35:50.450Z,2.23
2023-03-10T23:38:18.477Z,1.40
2023-03-10T23:40:46.625Z,2.10
2023-03-10T23:43:14.818Z,1.40
2023-03-10T23:45:42.922Z,1.23
2023-03-10T23:48:15.976Z,1.43
2023-03-10T23:50:47.814Z,2.30
2023-03-10T23:53:18.436Z,2.87
2023-03-10T23:55:47.848Z,1.80
2023-03-10T23:58:17.801Z,1.17
